Time;durP1;ratioP1;P1;durP2;ratioP2;P2;SDS_P1;SDS_P2;PMS_P1;PMS_P2;Temp;Humidity;BMP_temperature;BMP_pressure;BME280_temperature;BME280_humidity;BME280_pressure;Samples;Min_cycle;Max_cycle;Signal;HPM_P1;HPM_P2
2023/12/12 00:01:42;;;;;;;31.80;3.60;;;;;;;;;;5069773;28;20390;-37
2023/12/12 00:04:09;;;;;;;25.37;3.60;;;;;;;;;;5065469;28;20391;-38
2023/12/12 00:06:36;;;;;;;44.47;4.35;;;;;;;;;;5069837;28;20526;-37
2023/12/12 00:09:03;;;;;;;37.63;4.30;;;;;;;;;;5072359;28;20920;-37
2023/12/12 00:11:30;;;;;;;48.33;4.90;;;;;;;;;;5073165;28;20380;-37
2023/12/12 00:13:57;;;;;;;39.97;5.10;;;;;;;;;;5073172;28;20789;-38
2023/12/12 00:16:24;;;;;;;169.43;20.33;;;;;;;;;;5062405;28;20789;-38
2023/12/12 00:18:51;;;;;;;120.10;15.13;;;;;;;;;;5061340;28;20534;-38
2023/12/12 00:21:18;;;;;;;116.20;15.63;;;;;;;;;;5063370;28;20415;-38
2023/12/12 00:23:45;;;;;;;109.95;15.38;;;;;;;;;;5063038;28;20399;-37
2023/12/12 00:26:12;;;;;;;97.22;13.32;;;;;;;;;;5066162;28;20422;-37
2023/12/12 00:28:40;;;;;;;84.97;10.30;;;;;;;;;;5054035;28;20430;-40
2023/12/12 00:31:07;;;;;;;73.28;9.15;;;;;;;;;;5074026;28;20490;-40
2023/12/12 00:33:34;;;;;;;64.53;8.35;;;;;;;;;;5072761;28;20982;-39
2023/12/12 00:36:01;;;;;;;63.03;8.70;;;;;;;;;;5072751;28;20468;-40
2023/12/12 00:38:31;;;;;;;63.67;7.00;;;;;;;;;;5079447;28;20450;-41
2023/12/12 00:40:58;;;;;;;51.45;6.35;;;;;;;;;;5076236;28;20415;-40
2023/12/12 00:43:25;;;;;;;45.75;6.13;;;;;;;;;;5072412;28;20411;-39
2023/12/12 00:45:52;;;;;;;43.03;6.13;;;;;;;;;;5072658;28;20399;-38
2023/12/12 00:48:19;;;;;;;44.00;5.82;;;;;;;;;;5066465;28;20948;-39
2023/12/12 00:50:48;;;;;;;41.20;5.43;;;;;;;;;;5064463;28;20791;-39
2023/12/12 00:53:15;;;;;;;45.15;5.78;;;;;;;;;;5068967;28;20407;-38
2023/12/12 00:55:42;;;;;;;38.38;5.32;;;;;;;;;;5071812;28;20400;-39
2023/12/12 00:58:09;;;;;;;36.88;4.97;;;;;;;;;;5071735;28;20391;-41
2023/12/12 01:00:36;;;;;;;30.48;5.07;;;;;;;;;;5072175;28;20411;-42
2023/12/12 01:03:03;;;;;;;36.47;5.13;;;;;;;;;;5066394;28;20416;-41
2023/12/12 01:05:30;;;;;;;34.30;5.03;;;;;;;;;;5056990;28;20477;-40
2023/12/12 01:07:58;;;;;;;35.97;6.65;;;;;;;;;;5065474;28;20479;-39
2023/12/12 01:10:25;;;;;;;42.55;9.02;;;;;;;;;;5071655;28;20916;-40
2023/12/12 01:12:52;;;;;;;44.38;8.35;;;;;;;;;;5071647;28;20877;-39
2023/12/12 01:15:19;;;;;;;48.38;8.90;;;;;;;;;;5069842;28;21117;-40
2023/12/12 01:17:46;;;;;;;46.13;9.13;;;;;;;;;;5067791;28;20769;-40
2023/12/12 01:20:13;;;;;;;35.75;6.45;;;;;;;;;;5071113;28;20423;-39
2023/12/12 01:22:40;;;;;;;39.53;6.85;;;;;;;;;;5071681;28;20471;-40
2023/12/12 01:25:08;;;;;;;32.67;6.05;;;;;;;;;;5071628;28;20395;-39
2023/12/12 01:27:35;;;;;;;32.78;5.20;;;;;;;;;;5068825;28;20449;-40
2023/12/12 01:30:02;;;;;;;32.97;5.27;;;;;;;;;;5069323;28;20880;-39
2023/12/12 01:32:29;;;;;;;28.52;5.30;;;;;;;;;;5069986;28;20946;-39
2023/12/12 01:34:56;;;;;;;40.25;7.50;;;;;;;;;;5063744;28;20459;-41
2023/12/12 01:37:23;;;;;;;37.33;6.88;;;;;;;;;;5066731;28;20399;-40
2023/12/12 01:39:50;;;;;;;32.33;6.03;;;;;;;;;;5067873;28;20470;-41
2023/12/12 01:42:17;;;;;;;36.70;7.72;;;;;;;;;;5069814;28;20757;-42
2023/12/12 01:44:44;;;;;;;31.48;6.38;;;;;;;;;;5071066;28;20391;-41
2023/12/12 01:47:12;;;;;;;36.07;8.33;;;;;;;;;;5070876;28;20399;-41
2023/12/12 01:49:39;;;;;;;33.35;7.20;;;;;;;;;;5071421;28;20889;-41
2023/12/12 01:52:07;;;;;;;35.20;7.20;;;;;;;;;;5066867;28;20740;-40
2023/12/12 01:54:37;;;;;;;34.80;6.78;;;;;;;;;;5070422;28;20448;-40
2023/12/12 01:57:04;;;;;;;25.27;5.63;;;;;;;;;;5070905;28;20399;-39
2023/12/12 01:59:32;;;;;;;29.20;5.23;;;;;;;;;;5070866;28;20414;-39
2023/12/12 02:01:59;;;;;;;23.77;5.73;;;;;;;;;;5070948;28;20407;-40
2023/12/12 02:04:26;;;;;;;19.10;3.90;;;;;;;;;;5065929;28;20454;-41
2023/12/12 02:06:55;;;;;;;22.45;4.65;;;;;;;;;;5054169;28;20885;-39
2023/12/12 02:09:23;;;;;;;24.50;4.13;;;;;;;;;;5070930;28;20398;-39
2023/12/12 02:11:50;;;;;;;18.95;3.53;;;;;;;;;;5070666;28;20408;-38
2023/12/12 02:14:17;;;;;;;19.63;3.75;;;;;;;;;;5057686;28;20898;-39
2023/12/12 02:16:44;;;;;;;22.52;3.75;;;;;;;;;;5064631;28;20403;-39
2023/12/12 02:19:12;;;;;;;25.93;4.30;;;;;;;;;;5068055;28;20418;-40
2023/12/12 02:21:40;;;;;;;32.53;4.45;;;;;;;;;;5068483;28;20398;-40
2023/12/12 02:24:07;;;;;;;30.42;4.32;;;;;;;;;;5068903;28;20407;-40
2023/12/12 02:26:34;;;;;;;23.50;4.10;;;;;;;;;;5066938;28;21235;-41
2023/12/12 02:29:02;;;;;;;27.98;3.95;;;;;;;;;;5044763;28;20930;-40
2023/12/12 02:31:29;;;;;;;24.95;3.80;;;;;;;;;;5056005;28;20738;-40
2023/12/12 02:33:58;;;;;;;21.92;3.60;;;;;;;;;;5062439;28;20507;-41
2023/12/12 02:36:25;;;;;;;16.70;3.15;;;;;;;;;;5066359;28;20982;-40
2023/12/12 02:38:52;;;;;;;25.88;3.45;;;;;;;;;;5064679;28;20405;-40
2023/12/12 02:41:19;;;;;;;23.05;3.63;;;;;;;;;;5056378;28;20992;-39
2023/12/12 02:43:46;;;;;;;24.75;3.40;;;;;;;;;;5070301;28;20399;-40
2023/12/12 02:46:13;;;;;;;30.45;3.20;;;;;;;;;;5070005;28;20423;-39
2023/12/12 02:48:40;;;;;;;25.35;3.10;;;;;;;;;;5063765;28;20803;-39
2023/12/12 02:51:07;;;;;;;19.70;2.75;;;;;;;;;;5060290;28;20393;-37
2023/12/12 02:53:34;;;;;;;21.30;2.85;;;;;;;;;;5055053;28;20409;-37
2023/12/12 02:56:01;;;;;;;22.00;2.97;;;;;;;;;;5046903;28;20396;-36
2023/12/12 02:58:28;;;;;;;25.60;2.60;;;;;;;;;;5061241;28;20397;-36
2023/12/12 03:00:55;;;;;;;20.58;2.72;;;;;;;;;;5050788;28;20447;-36
2023/12/12 03:03:22;;;;;;;23.02;2.92;;;;;;;;;;5055492;28;20408;-37
2023/12/12 03:05:49;;;;;;;27.20;2.85;;;;;;;;;;5070367;28;20426;-38
2023/12/12 03:08:16;;;;;;;24.58;2.92;;;;;;;;;;5063940;28;20914;-37
2023/12/12 03:10:43;;;;;;;20.63;2.53;;;;;;;;;;5070325;28;20383;-37
2023/12/12 03:13:10;;;;;;;18.27;2.53;;;;;;;;;;5070604;28;20388;-37
2023/12/12 03:15:37;;;;;;;27.10;3.00;;;;;;;;;;5070308;28;20375;-35
2023/12/12 03:18:04;;;;;;;23.33;2.92;;;;;;;;;;5061142;28;20425;-38
2023/12/12 03:20:31;;;;;;;19.15;2.80;;;;;;;;;;5067196;28;20407;-37
2023/12/12 03:22:58;;;;;;;15.90;2.08;;;;;;;;;;5064008;28;20404;-36
2023/12/12 03:25:25;;;;;;;20.98;2.83;;;;;;;;;;5070222;28;20388;-37
2023/12/12 03:27:52;;;;;;;15.82;2.20;;;;;;;;;;5070154;28;20876;-36
2023/12/12 03:30:20;;;;;;;16.73;2.50;;;;;;;;;;5070107;28;20375;-37
2023/12/12 03:32:47;;;;;;;20.00;2.63;;;;;;;;;;5061344;28;20404;-37
2023/12/12 03:35:14;;;;;;;21.80;2.85;;;;;;;;;;5042535;28;20865;-36
2023/12/12 03:37:41;;;;;;;17.92;2.70;;;;;;;;;;5067862;28;20753;-37
2023/12/12 03:40:08;;;;;;;21.75;2.50;;;;;;;;;;5070004;28;21186;-37
2023/12/12 03:42:35;;;;;;;22.52;2.88;;;;;;;;;;5069139;28;20519;-36
2023/12/12 03:45:03;;;;;;;22.67;2.37;;;;;;;;;;5064037;28;20384;-37
2023/12/12 03:47:30;;;;;;;22.52;2.83;;;;;;;;;;5072403;28;20766;-37
2023/12/12 03:49:57;;;;;;;21.08;2.17;;;;;;;;;;5068523;28;20396;-36
2023/12/12 03:52:24;;;;;;;15.20;2.10;;;;;;;;;;5056259;28;20423;-36
2023/12/12 03:54:51;;;;;;;15.65;2.33;;;;;;;;;;5056437;28;20388;-36
2023/12/12 03:57:18;;;;;;;19.90;2.20;;;;;;;;;;5071000;28;20734;-39
2023/12/12 03:59:46;;;;;;;18.70;2.10;;;;;;;;;;5073467;28;20403;-38
2023/12/12 04:02:13;;;;;;;18.33;1.92;;;;;;;;;;5073751;28;20433;-38
2023/12/12 04:04:40;;;;;;;16.98;2.15;;;;;;;;;;5073536;28;20387;-38
2023/12/12 04:07:07;;;;;;;15.00;2.17;;;;;;;;;;5073460;28;20887;-39
2023/12/12 04:09:34;;;;;;;15.90;2.05;;;;;;;;;;5042871;28;20400;-39
2023/12/12 04:12:01;;;;;;;17.33;2.20;;;;;;;;;;5049816;28;20424;-38
2023/12/12 04:14:28;;;;;;;18.07;2.10;;;;;;;;;;5052857;28;20472;-38
2023/12/12 04:16:55;;;;;;;19.33;1.92;;;;;;;;;;5053221;28;20440;-39
2023/12/12 04:19:22;;;;;;;18.08;2.22;;;;;;;;;;5053282;28;20817;-39
2023/12/12 04:21:49;;;;;;;17.40;2.30;;;;;;;;;;5053259;28;20457;-39
2023/12/12 04:24:16;;;;;;;16.05;2.03;;;;;;;;;;5048996;28;20459;-38
2023/12/12 04:26:43;;;;;;;16.00;2.15;;;;;;;;;;5052928;28;20416;-39
2023/12/12 04:29:10;;;;;;;13.23;1.90;;;;;;;;;;5053156;28;20381;-39
2023/12/12 04:31:38;;;;;;;19.40;2.50;;;;;;;;;;5052909;28;20826;-39
2023/12/12 04:34:05;;;;;;;16.77;2.50;;;;;;;;;;5052972;28;20428;-40
2023/12/12 04:36:33;;;;;;;19.83;2.20;;;;;;;;;;5048653;28;20389;-39
2023/12/12 04:39:00;;;;;;;12.32;1.90;;;;;;;;;;5052852;28;20386;-39
2023/12/12 04:41:27;;;;;;;17.27;2.33;;;;;;;;;;5034819;28;20512;-39
2023/12/12 04:43:54;;;;;;;17.58;1.95;;;;;;;;;;5052879;28;20455;-41
2023/12/12 04:46:21;;;;;;;16.15;2.00;;;;;;;;;;5052006;28;20431;-42
2023/12/12 04:48:48;;;;;;;11.93;1.70;;;;;;;;;;5049028;28;20386;-42
2023/12/12 04:51:15;;;;;;;11.40;1.67;;;;;;;;;;5052705;28;20408;-43
2023/12/12 04:53:42;;;;;;;12.73;1.95;;;;;;;;;;5052410;28;20380;-42
2023/12/12 04:56:10;;;;;;;11.98;1.75;;;;;;;;;;5052646;28;20388;-42
2023/12/12 04:58:37;;;;;;;16.52;2.25;;;;;;;;;;5050950;28;20393;-45
2023/12/12 05:01:04;;;;;;;15.60;1.77;;;;;;;;;;5049474;28;20417;-44
2023/12/12 05:03:32;;;;;;;17.08;1.75;;;;;;;;;;5052592;28;20386;-43
2023/12/12 05:06:00;;;;;;;10.00;1.75;;;;;;;;;;5052288;28;20398;-43
2023/12/12 05:08:27;;;;;;;15.02;1.77;;;;;;;;;;5052252;28;20388;-42
2023/12/12 05:10:55;;;;;;;15.00;1.80;;;;;;;;;;5050431;28;21246;-42
2023/12/12 05:13:22;;;;;;;11.55;1.55;;;;;;;;;;5050125;28;20400;-42
2023/12/12 05:15:49;;;;;;;12.43;1.77;;;;;;;;;;5052344;28;20389;-42
2023/12/12 05:18:16;;;;;;;11.95;2.10;;;;;;;;;;5052066;28;20806;-42
2023/12/12 05:20:43;;;;;;;14.45;1.90;;;;;;;;;;5052173;28;20417;-42
2023/12/12 05:23:11;;;;;;;14.45;2.00;;;;;;;;;;5049578;28;20439;-42
2023/12/12 05:25:39;;;;;;;11.95;1.98;;;;;;;;;;5050133;28;20392;-44
2023/12/12 05:28:06;;;;;;;17.40;2.10;;;;;;;;;;5052019;28;20886;-42
2023/12/12 05:30:33;;;;;;;11.73;1.88;;;;;;;;;;5052005;28;20439;-43
2023/12/12 05:33:00;;;;;;;11.53;1.77;;;;;;;;;;5033728;28;20413;-42
2023/12/12 05:35:27;;;;;;;12.98;1.83;;;;;;;;;;5048639;28;20420;-43
2023/12/12 05:37:54;;;;;;;14.10;2.00;;;;;;;;;;5050662;28;20447;-41
2023/12/12 05:40:21;;;;;;;12.40;1.57;;;;;;;;;;5051761;28;20417;-42
2023/12/12 05:42:48;;;;;;;15.95;1.95;;;;;;;;;;5051820;28;20751;-41
2023/12/12 05:45:17;;;;;;;14.98;1.88;;;;;;;;;;5051745;28;20447;-41
2023/12/12 05:47:44;;;;;;;13.35;2.15;;;;;;;;;;5047521;28;20401;-43
2023/12/12 05:50:11;;;;;;;12.32;1.80;;;;;;;;;;5051177;28;20953;-42
2023/12/12 05:52:39;;;;;;;8.27;1.80;;;;;;;;;;5051360;28;20866;-42
2023/12/12 05:55:06;;;;;;;10.65;1.70;;;;;;;;;;5051507;28;20381;-42
2023/12/12 05:57:33;;;;;;;15.00;1.83;;;;;;;;;;5051573;28;20378;-41
2023/12/12 06:00:00;;;;;;;10.20;1.83;;;;;;;;;;5047016;28;20424;-42
2023/12/12 06:02:28;;;;;;;10.63;1.75;;;;;;;;;;5065559;28;20913;-42
2023/12/12 06:04:55;;;;;;;11.50;1.77;;;;;;;;;;5070362;28;20418;-42
2023/12/12 06:07:22;;;;;;;10.77;1.55;;;;;;;;;;5071454;28;20387;-42
2023/12/12 06:09:49;;;;;;;12.73;1.95;;;;;;;;;;5071355;28;20407;-42
2023/12/12 06:12:17;;;;;;;10.73;1.67;;;;;;;;;;5066727;28;20885;-41
2023/12/12 06:14:47;;;;;;;8.38;1.48;;;;;;;;;;5071082;28;20410;-43
2023/12/12 06:17:14;;;;;;;14.03;2.00;;;;;;;;;;5071145;28;20380;-42
2023/12/12 06:19:41;;;;;;;8.82;1.67;;;;;;;;;;5071045;28;20495;-41
2023/12/12 06:22:08;;;;;;;10.77;1.73;;;;;;;;;;5070861;28;20372;-42
2023/12/12 06:24:35;;;;;;;12.95;1.70;;;;;;;;;;5066687;28;20829;-42
2023/12/12 06:27:02;;;;;;;12.18;1.70;;;;;;;;;;5070801;28;20387;-42
2023/12/12 06:29:29;;;;;;;12.10;1.73;;;;;;;;;;5070912;28;20459;-42
2023/12/12 06:31:56;;;;;;;14.10;1.92;;;;;;;;;;5070640;28;20420;-42
2023/12/12 06:34:23;;;;;;;13.20;1.60;;;;;;;;;;5052042;28;20495;-43
2023/12/12 06:36:51;;;;;;;13.45;1.88;;;;;;;;;;5067104;28;20486;-42
2023/12/12 06:39:18;;;;;;;13.20;2.00;;;;;;;;;;5069419;28;20503;-42
2023/12/12 06:41:45;;;;;;;12.85;1.80;;;;;;;;;;5070712;28;20392;-42
2023/12/12 06:44:12;;;;;;;15.15;1.75;;;;;;;;;;5070761;28;20386;-42
2023/12/12 06:46:39;;;;;;;11.00;1.80;;;;;;;;;;5069004;28;20715;-43
2023/12/12 06:49:06;;;;;;;9.98;1.55;;;;;;;;;;5067464;28;20380;-42
2023/12/12 06:51:35;;;;;;;10.45;1.65;;;;;;;;;;5070597;28;20395;-42
2023/12/12 06:54:03;;;;;;;13.98;1.60;;;;;;;;;;5070444;28;20777;-42
2023/12/12 06:56:31;;;;;;;11.25;1.80;;;;;;;;;;5070364;28;20396;-42
2023/12/12 06:58:58;;;;;;;10.60;1.75;;;;;;;;;;5068143;28;20429;-43
2023/12/12 07:01:25;;;;;;;16.92;1.90;;;;;;;;;;5068008;28;20427;-42
2023/12/12 07:03:52;;;;;;;13.77;2.10;;;;;;;;;;5069130;28;20379;-42
2023/12/12 07:06:19;;;;;;;11.52;1.70;;;;;;;;;;5070449;28;20395;-42
2023/12/12 07:08:46;;;;;;;8.90;1.58;;;;;;;;;;5070368;28;20391;-42
2023/12/12 07:11:13;;;;;;;15.53;1.80;;;;;;;;;;5067865;28;20455;-43
2023/12/12 07:13:40;;;;;;;13.90;1.80;;;;;;;;;;5068508;28;20396;-42
2023/12/12 07:16:10;;;;;;;10.35;1.63;;;;;;;;;;5068870;28;20434;-42
2023/12/12 07:18:38;;;;;;;9.13;1.70;;;;;;;;;;5070059;28;20400;-42
2023/12/12 07:21:05;;;;;;;15.60;1.90;;;;;;;;;;5070160;28;20420;-42
2023/12/12 07:23:33;;;;;;;12.10;2.00;;;;;;;;;;5066999;28;20380;-43
2023/12/12 07:26:00;;;;;;;11.82;1.85;;;;;;;;;;5069278;28;20387;-42
2023/12/12 07:28:27;;;;;;;11.87;2.00;;;;;;;;;;5070106;28;20454;-42
2023/12/12 07:30:55;;;;;;;8.77;2.27;;;;;;;;;;5070203;28;20380;-42
2023/12/12 07:33:22;;;;;;;11.23;1.80;;;;;;;;;;5083029;28;20406;-42
2023/12/12 07:35:49;;;;;;;11.45;1.73;;;;;;;;;;5086186;28;20397;-43
2023/12/12 07:38:16;;;;;;;11.32;1.80;;;;;;;;;;5089839;28;20444;-42
2023/12/12 07:40:43;;;;;;;11.77;1.93;;;;;;;;;;5090285;28;20414;-42
2023/12/12 07:43:10;;;;;;;13.37;2.37;;;;;;;;;;5090273;28;20390;-42
2023/12/12 07:45:37;;;;;;;9.15;1.90;;;;;;;;;;5090214;28;20393;-43
2023/12/12 07:48:04;;;;;;;9.07;1.60;;;;;;;;;;5085537;28;20389;-42
2023/12/12 07:50:31;;;;;;;10.15;2.03;;;;;;;;;;5090250;28;20390;-42
2023/12/12 07:52:58;;;;;;;9.77;1.77;;;;;;;;;;5090125;28;20388;-42
2023/12/12 07:55:25;;;;;;;8.65;1.73;;;;;;;;;;5090184;28;20417;-42
2023/12/12 07:57:53;;;;;;;8.45;1.90;;;;;;;;;;5090055;28;20373;-42
2023/12/12 08:00:20;;;;;;;12.88;1.75;;;;;;;;;;5085492;28;20505;-42
2023/12/12 08:02:47;;;;;;;12.20;2.08;;;;;;;;;;5090069;28;20386;-42
2023/12/12 08:05:14;;;;;;;8.70;1.73;;;;;;;;;;5089950;28;20771;-42
2023/12/12 08:07:41;;;;;;;10.35;1.83;;;;;;;;;;5089923;28;20390;-44
2023/12/12 08:10:08;;;;;;;8.48;1.88;;;;;;;;;;5089750;28;20382;-44
2023/12/12 08:12:36;;;;;;;10.48;1.92;;;;;;;;;;5085580;28;20386;-44
2023/12/12 08:15:04;;;;;;;12.82;2.10;;;;;;;;;;5089893;28;20460;-43
2023/12/12 08:17:31;;;;;;;12.30;1.88;;;;;;;;;;5089656;28;20473;-44
2023/12/12 08:19:58;;;;;;;11.68;2.10;;;;;;;;;;5089809;28;20463;-43
2023/12/12 08:22:25;;;;;;;9.73;2.30;;;;;;;;;;5088959;28;20417;-45
2023/12/12 08:24:54;;;;;;;13.10;2.23;;;;;;;;;;5086290;28;20445;-44
2023/12/12 08:27:21;;;;;;;8.88;1.83;;;;;;;;;;5090046;28;20874;-44
2023/12/12 08:29:49;;;;;;;11.02;1.73;;;;;;;;;;5093308;28;20790;-43
2023/12/12 08:32:16;;;;;;;14.25;1.90;;;;;;;;;;5093248;28;20414;-44
2023/12/12 08:34:43;;;;;;;10.32;1.80;;;;;;;;;;5091859;28;20380;-44
2023/12/12 08:37:10;;;;;;;11.80;1.98;;;;;;;;;;5090157;28;20378;-43
2023/12/12 08:39:38;;;;;;;11.40;2.22;;;;;;;;;;5093160;28;21003;-44
2023/12/12 08:42:05;;;;;;;10.07;2.20;;;;;;;;;;5092971;28;20461;-44
2023/12/12 08:44:32;;;;;;;14.20;2.17;;;;;;;;;;5093262;28;20378;-44
2023/12/12 08:46:59;;;;;;;11.43;1.95;;;;;;;;;;5090819;28;20409;-44
2023/12/12 08:49:26;;;;;;;13.82;2.20;;;;;;;;;;5090784;28;21204;-43
2023/12/12 08:51:53;;;;;;;14.23;1.95;;;;;;;;;;5093026;28;20387;-43
2023/12/12 08:54:21;;;;;;;5.50;1.67;;;;;;;;;;5093086;28;20386;-44
2023/12/12 08:56:52;;;;;;;9.75;1.98;;;;;;;;;;5092718;28;20464;-44
2023/12/12 08:59:21;;;;;;;9.57;1.95;;;;;;;;;;5089667;28;20895;-44
2023/12/12 09:01:48;;;;;;;12.35;2.38;;;;;;;;;;5091182;28;20390;-44
2023/12/12 09:04:16;;;;;;;14.05;2.25;;;;;;;;;;5092777;28;20906;-44
2023/12/12 09:06:46;;;;;;;17.60;2.20;;;;;;;;;;5092632;28;20378;-44
2023/12/12 09:09:13;;;;;;;12.25;1.90;;;;;;;;;;5092805;28;20438;-44
2023/12/12 09:11:40;;;;;;;13.00;2.13;;;;;;;;;;5088936;28;20854;-44
2023/12/12 09:14:08;;;;;;;10.90;2.30;;;;;;;;;;5091949;28;20382;-43
2023/12/12 09:16:35;;;;;;;11.75;2.40;;;;;;;;;;5092500;28;20864;-44
2023/12/12 09:19:02;;;;;;;13.73;2.40;;;;;;;;;;5092436;28;20422;-44
2023/12/12 09:21:29;;;;;;;12.93;1.70;;;;;;;;;;5092333;28;20875;-44
2023/12/12 09:23:55;;;;;;;13.75;2.20;;;;;;;;;;5088524;28;20386;-44
2023/12/12 09:26:22;;;;;;;8.93;2.05;;;;;;;;;;5092127;28;20413;-44
2023/12/12 09:28:49;;;;;;;11.15;2.30;;;;;;;;;;5092230;28;20422;-43
2023/12/12 09:31:24;;;;;;;9.77;2.20;;;;;;;;;;5074035;28;20767;-42
2023/12/12 09:33:51;;;;;;;16.30;2.42;;;;;;;;;;5092027;28;20414;-43
2023/12/12 09:36:18;;;;;;;17.88;2.58;;;;;;;;;;5087586;28;20410;-42
2023/12/12 09:38:45;;;;;;;12.55;2.25;;;;;;;;;;5091069;28;20402;-43
2023/12/12 09:41:17;;;;;;;14.98;1.98;;;;;;;;;;5091344;28;20769;-43
2023/12/12 09:43:45;;;;;;;14.38;2.47;;;;;;;;;;5085632;28;20501;-43
2023/12/12 09:46:12;;;;;;;13.13;2.22;;;;;;;;;;5091481;28;20400;-43
2023/12/12 09:48:40;;;;;;;15.35;2.53;;;;;;;;;;5069305;28;20485;-43
2023/12/12 09:51:08;;;;;;;16.42;2.50;;;;;;;;;;5091839;28;20386;-43
2023/12/12 09:53:36;;;;;;;13.68;2.70;;;;;;;;;;5091826;28;20382;-43
2023/12/12 09:56:03;;;;;;;14.02;2.40;;;;;;;;;;5091870;28;20389;-43
2023/12/12 09:58:31;;;;;;;10.65;2.22;;;;;;;;;;5070161;28;20443;-43
2023/12/12 10:01:00;;;;;;;15.05;2.60;;;;;;;;;;5067513;28;20426;-42
2023/12/12 10:03:28;;;;;;;16.20;2.63;;;;;;;;;;5071313;28;20380;-42
2023/12/12 10:05:57;;;;;;;23.30;3.22;;;;;;;;;;5051665;28;20957;-43
2023/12/12 10:08:24;;;;;;;18.95;2.50;;;;;;;;;;5051358;28;20374;-43
2023/12/12 10:10:52;;;;;;;22.55;2.92;;;;;;;;;;5048185;28;20949;-43
2023/12/12 10:13:19;;;;;;;19.10;2.50;;;;;;;;;;5047409;28;20398;-43
2023/12/12 10:15:47;;;;;;;13.77;2.83;;;;;;;;;;5071078;28;20398;-43
2023/12/12 10:18:15;;;;;;;11.00;2.13;;;;;;;;;;5069787;28;20405;-42
2023/12/12 10:20:42;;;;;;;18.60;2.60;;;;;;;;;;5052371;28;20423;-42
2023/12/12 10:23:09;;;;;;;10.52;2.05;;;;;;;;;;5067831;28;21253;-43
2023/12/12 10:25:36;;;;;;;11.48;2.65;;;;;;;;;;5065352;28;20430;-42
2023/12/12 10:28:04;;;;;;;16.95;2.40;;;;;;;;;;5070379;28;20426;-42
2023/12/12 10:30:31;;;;;;;18.63;2.90;;;;;;;;;;5069503;28;20404;-42
2023/12/12 10:32:57;;;;;;;19.50;2.90;;;;;;;;;;5069192;28;20815;-42
2023/12/12 10:35:28;;;;;;;18.63;3.35;;;;;;;;;;5066305;28;20912;-43
2023/12/12 10:37:55;;;;;;;17.55;3.05;;;;;;;;;;5068832;28;20407;-42
2023/12/12 10:40:22;;;;;;;15.03;2.90;;;;;;;;;;5070047;28;20816;-42
2023/12/12 10:42:52;;;;;;;16.35;3.30;;;;;;;;;;5069930;28;20407;-42
2023/12/12 10:45:23;;;;;;;21.55;3.33;;;;;;;;;;5070721;28;20383;-42
2023/12/12 10:47:51;;;;;;;19.83;2.90;;;;;;;;;;5066574;28;20449;-43
2023/12/12 10:50:18;;;;;;;13.65;2.90;;;;;;;;;;5070089;28;20388;-42
2023/12/12 10:52:46;;;;;;;22.60;3.15;;;;;;;;;;5070728;28;20387;-42
2023/12/12 10:55:14;;;;;;;17.67;3.00;;;;;;;;;;5070534;28;20881;-42
2023/12/12 10:57:45;;;;;;;15.97;2.60;;;;;;;;;;5070568;28;20900;-42
2023/12/12 11:00:14;;;;;;;14.05;2.40;;;;;;;;;;5048124;28;20442;-43
2023/12/12 11:02:42;;;;;;;14.70;2.60;;;;;;;;;;5070561;28;20465;-42
2023/12/12 11:05:10;;;;;;;15.07;2.72;;;;;;;;;;5070076;28;20407;-43
2023/12/12 11:07:38;;;;;;;25.60;3.47;;;;;;;;;;5070177;28;20934;-42
2023/12/12 11:10:14;;;;;;;26.40;2.97;;;;;;;;;;5063700;28;20389;-43
2023/12/12 11:12:44;;;;;;;23.50;3.35;;;;;;;;;;5056717;28;20409;-40
2023/12/12 11:15:12;;;;;;;15.05;2.58;;;;;;;;;;5058380;28;20982;-40
2023/12/12 11:17:39;;;;;;;14.85;2.42;;;;;;;;;;5069873;28;20483;-40
2023/12/12 11:20:13;;;;;;;12.90;2.53;;;;;;;;;;5070320;28;20423;-39
2023/12/12 11:22:44;;;;;;;16.77;2.60;;;;;;;;;;5070331;28;20470;-40
2023/12/12 11:25:20;;;;;;;14.73;2.25;;;;;;;;;;5052278;28;20376;-40
2023/12/12 11:27:54;;;;;;;8.63;1.98;;;;;;;;;;5070263;28;20463;-40
2023/12/12 11:30:30;;;;;;;10.82;2.10;;;;;;;;;;5070361;28;20415;-40
2023/12/12 11:32:57;;;;;;;11.52;2.63;;;;;;;;;;5070154;28;20424;-40
2023/12/12 11:35:31;;;;;;;14.07;2.33;;;;;;;;;;5070278;28;20384;-40
2023/12/12 11:38:05;;;;;;;14.63;2.50;;;;;;;;;;5070048;28;20427;-38
2023/12/12 11:40:37;;;;;;;91.57;5.63;;;;;;;;;;5070132;28;20415;-39
2023/12/12 11:43:20;;;;;;;88.65;5.60;;;;;;;;;;5069978;28;20727;-44
2023/12/12 11:45:47;;;;;;;81.43;5.40;;;;;;;;;;5046979;28;20396;-40
2023/12/12 11:48:14;;;;;;;52.42;4.85;;;;;;;;;;5048487;28;20408;-39
2023/12/12 11:50:42;;;;;;;49.75;3.92;;;;;;;;;;5048082;28;20755;-39
2023/12/12 11:53:08;;;;;;;34.20;3.47;;;;;;;;;;5049348;28;20762;-39
2023/12/12 11:55:42;;;;;;;126.27;9.73;;;;;;;;;;5048712;28;21114;-44
2023/12/12 11:58:09;;;;;;;195.13;12.53;;;;;;;;;;5049676;28;20394;-44
2023/12/12 12:00:37;;;;;;;106.13;11.43;;;;;;;;;;5047675;28;20993;-44
2023/12/12 12:03:11;;;;;;;74.25;7.38;;;;;;;;;;5032925;28;20439;-44
2023/12/12 12:05:38;;;;;;;56.25;6.05;;;;;;;;;;5052293;28;20433;-43
2023/12/12 12:08:05;;;;;;;46.00;5.00;;;;;;;;;;5053233;28;20401;-45
2023/12/12 12:10:32;;;;;;;24.98;3.92;;;;;;;;;;5052424;28;20393;-51
2023/12/12 12:12:59;;;;;;;40.20;4.82;;;;;;;;;;5051837;28;20403;-44
2023/12/12 12:15:27;;;;;;;85.78;7.93;;;;;;;;;;5052571;28;20428;-46
2023/12/12 12:17:54;;;;;;;110.70;9.90;;;;;;;;;;5035865;28;20801;-44
2023/12/12 12:20:21;;;;;;;60.60;5.73;;;;;;;;;;5053418;28;20417;-44
2023/12/12 12:22:48;;;;;;;69.20;7.25;;;;;;;;;;5053518;28;20476;-44
2023/12/12 12:25:22;;;;;;;82.03;8.70;;;;;;;;;;5053328;28;20400;-44
2023/12/12 12:27:49;;;;;;;69.10;7.47;;;;;;;;;;5053043;28;20393;-43
2023/12/12 12:30:17;;;;;;;59.30;6.53;;;;;;;;;;5053082;28;20392;-45
2023/12/12 12:33:05;;;;;;;37.17;4.65;;;;;;;;;;5052951;28;20416;-44
2023/12/12 12:35:32;;;;;;;28.08;3.92;;;;;;;;;;5053169;28;20397;-45
2023/12/12 12:37:59;;;;;;;23.80;3.50;;;;;;;;;;5053167;28;20381;-44
2023/12/12 12:40:33;;;;;;;19.70;3.53;;;;;;;;;;5053085;28;20910;-44
2023/12/12 12:43:02;;;;;;;21.10;2.78;;;;;;;;;;5053192;28;20392;-43
2023/12/12 12:45:29;;;;;;;15.60;2.80;;;;;;;;;;5052901;28;20381;-44
2023/12/12 12:47:56;;;;;;;56.08;5.32;;;;;;;;;;5052933;28;20380;-45
2023/12/12 12:50:22;;;;;;;42.83;4.70;;;;;;;;;;5053037;28;20875;-44
2023/12/12 12:52:49;;;;;;;30.38;4.15;;;;;;;;;;5052839;28;20434;-44
2023/12/12 12:55:16;;;;;;;31.90;4.07;;;;;;;;;;5052776;28;20438;-44
2023/12/12 12:57:44;;;;;;;27.05;3.60;;;;;;;;;;5052654;28;20508;-44
2023/12/12 13:00:13;;;;;;;30.20;3.87;;;;;;;;;;5052679;28;20463;-44
2023/12/12 13:02:39;;;;;;;22.92;3.30;;;;;;;;;;5061826;28;20429;-44
2023/12/12 13:05:08;;;;;;;16.08;2.83;;;;;;;;;;5091244;28;20408;-44
2023/12/12 13:07:35;;;;;;;17.48;2.97;;;;;;;;;;5093034;28;20381;-43
2023/12/12 13:10:02;;;;;;;18.25;2.72;;;;;;;;;;5092864;28;20428;-43
2023/12/12 13:12:29;;;;;;;13.57;2.80;;;;;;;;;;5092908;28;20417;-43
2023/12/12 13:14:56;;;;;;;15.15;2.75;;;;;;;;;;5080037;28;20395;-43
2023/12/12 13:17:22;;;;;;;17.35;2.78;;;;;;;;;;5051487;28;20393;-43
2023/12/12 13:19:49;;;;;;;35.58;3.35;;;;;;;;;;5052404;28;20386;-43
2023/12/12 13:22:16;;;;;;;35.38;3.70;;;;;;;;;;5072862;28;20892;-43
2023/12/12 13:24:43;;;;;;;28.17;3.47;;;;;;;;;;5080734;28;20768;-43
2023/12/12 13:27:10;;;;;;;32.97;3.38;;;;;;;;;;5074819;28;20399;-43
2023/12/12 13:29:37;;;;;;;26.52;3.67;;;;;;;;;;5076297;28;20482;-43
2023/12/12 13:32:05;;;;;;;27.25;3.42;;;;;;;;;;5074194;28;20392;-44
2023/12/12 13:34:33;;;;;;;25.58;3.67;;;;;;;;;;5089737;28;20421;-44
2023/12/12 13:37:00;;;;;;;20.13;3.40;;;;;;;;;;5075017;28;20434;-43
2023/12/12 13:39:27;;;;;;;29.93;4.27;;;;;;;;;;5072026;28;20437;-43
2023/12/12 13:41:54;;;;;;;17.55;3.22;;;;;;;;;;5071663;28;20427;-43
2023/12/12 13:44:21;;;;;;;19.42;3.22;;;;;;;;;;5071782;28;20402;-43
2023/12/12 13:46:48;;;;;;;15.38;2.80;;;;;;;;;;5071033;28;20382;-42
2023/12/12 13:49:15;;;;;;;17.23;3.03;;;;;;;;;;5071957;28;20404;-44
2023/12/12 13:51:42;;;;;;;15.02;2.85;;;;;;;;;;5073146;28;20912;-42
2023/12/12 13:54:09;;;;;;;16.17;2.90;;;;;;;;;;5061859;28;20396;-43
2023/12/12 13:56:36;;;;;;;12.87;2.70;;;;;;;;;;5070853;28;20467;-43
2023/12/12 13:59:03;;;;;;;14.35;2.75;;;;;;;;;;5070552;28;20403;-43
2023/12/12 14:01:30;;;;;;;11.27;2.65;;;;;;;;;;5066709;28;20959;-43
2023/12/12 14:03:57;;;;;;;15.20;2.40;;;;;;;;;;5071420;28;20376;-43
2023/12/12 14:06:24;;;;;;;13.35;2.88;;;;;;;;;;5065263;28;20397;-43
2023/12/12 14:08:51;;;;;;;9.67;2.70;;;;;;;;;;5059724;28;20425;-43
2023/12/12 14:11:24;;;;;;;12.68;2.63;;;;;;;;;;5061889;28;20385;-43
2023/12/12 14:13:54;;;;;;;12.23;2.42;;;;;;;;;;5070955;28;20471;-43
2023/12/12 14:16:21;;;;;;;15.52;2.72;;;;;;;;;;5066998;28;20402;-46
2023/12/12 14:18:48;;;;;;;15.02;2.70;;;;;;;;;;5053718;28;20401;-43
2023/12/12 14:21:14;;;;;;;14.77;2.75;;;;;;;;;;5069045;28;20469;-43
2023/12/12 14:23:42;;;;;;;7.15;2.55;;;;;;;;;;5070767;28;20873;-43
2023/12/12 14:26:12;;;;;;;37.75;4.38;;;;;;;;;;5057183;28;20408;-43
2023/12/12 14:28:43;;;;;;;30.98;3.78;;;;;;;;;;5070264;28;20395;-43
2023/12/12 14:31:10;;;;;;;22.27;3.08;;;;;;;;;;5070227;28;20425;-43
2023/12/12 14:33:37;;;;;;;24.02;3.20;;;;;;;;;;5061776;28;20482;-43